createdAt,value
2022-11-02T00:00:37.989Z,101331.50
2022-11-02T00:03:09.636Z,101353.88
2022-11-02T00:05:41.136Z,101344.81
2022-11-02T00:08:11.800Z,101341.91
2022-11-02T00:10:41.914Z,101347.06
2022-11-02T00:13:13.698Z,101344.31
2022-11-02T00:15:44.383Z,101351.00
2022-11-02T00:18:16.180Z,101349.84
2022-11-02T00:20:47.096Z,101356.75
2022-11-02T00:23:18.379Z,101359.28
2022-11-02T00:25:52.693Z,101366.94
2022-11-02T00:28:23.340Z,101380.94
2022-11-02T00:30:54.022Z,101382.63
2022-11-02T00:33:24.714Z,101392.91
2022-11-02T00:35:56.400Z,101390.41
2022-11-02T00:38:28.210Z,101391.00
2022-11-02T00:41:03.664Z,101395.06
2022-11-02T00:43:37.184Z,101385.97
2022-11-02T00:46:09.458Z,101393.50
2022-11-02T00:48:40.920Z,101374.50
2022-11-02T00:51:22.448Z,101380.13
2022-11-02T00:53:55.791Z,101384.06
2022-11-02T00:56:25.940Z,101387.94
2022-11-02T00:59:05.062Z,101379.41
2022-11-02T01:01:35.976Z,101396.53
2022-11-02T01:04:07.737Z,101396.75
2022-11-02T01:06:41.515Z,101391.47
2022-11-02T01:09:13.829Z,101392.53
2022-11-02T01:11:46.330Z,101402.47
2022-11-02T01:14:17.584Z,101409.03
2022-11-02T01:16:49.580Z,101416.19
2022-11-02T01:19:23.017Z,101425.38
2022-11-02T01:21:53.631Z,101425.63
2022-11-02T01:24:24.783Z,101414.56
2022-11-02T01:26:57.093Z,101415.47
2022-11-02T01:29:29.183Z,101412.94
2022-11-02T01:31:59.553Z,101406.88
2022-11-02T01:34:31.109Z,101400.94
2022-11-02T01:37:01.549Z,101404.63
2022-11-02T01:39:32.952Z,101391.75
2022-11-02T01:42:03.926Z,101384.16
2022-11-02T01:44:38.034Z,101376.56
2022-11-02T01:47:21.329Z,101377.44
2022-11-02T01:50:06.604Z,101349.81
2022-11-02T01:52:41.819Z,101363.78
2022-11-02T01:55:21.624Z,101356.88
2022-11-02T01:58:02.645Z,101358.00
2022-11-02T02:00:33.206Z,101354.56
2022-11-02T02:03:22.460Z,101358.91
2022-11-02T02:06:03.861Z,101360.03
2022-11-02T02:08:35.791Z,101354.06
2022-11-02T02:11:27.346Z,101345.59
2022-11-02T02:14:04.485Z,101340.31
2022-11-02T02:19:31.828Z,101338.66
2022-11-02T02:22:24.234Z,101336.97
2022-11-02T02:25:16.067Z,101333.34
2022-11-02T02:28:14.143Z,101335.00
2022-11-02T02:31:08.097Z,101335.13
2022-11-02T02:33:58.601Z,101322.03
2022-11-02T02:36:54.032Z,101321.31
2022-11-02T02:39:57.687Z,101317.84
2022-11-02T02:42:46.966Z,101316.28
2022-11-02T02:45:47.509Z,101319.88
2022-11-02T02:48:22.354Z,101313.00
2022-11-02T02:51:04.207Z,101312.44
2022-11-02T02:53:46.077Z,101305.59
2022-11-02T02:56:22.942Z,101287.44
2022-11-02T02:59:02.022Z,101297.16
2022-11-02T03:01:33.060Z,101299.50
2022-11-02T03:04:05.002Z,101292.63
2022-11-02T03:06:37.112Z,101285.75
2022-11-02T03:09:31.558Z,101289.47
2022-11-02T03:12:27.774Z,101288.88
2022-11-02T03:15:15.675Z,101293.28
2022-11-02T03:17:57.937Z,101293.81
2022-11-02T03:20:56.840Z,101290.19
2022-11-02T03:23:37.173Z,101290.72
2022-11-02T03:26:15.404Z,101274.19
2022-11-02T03:28:53.721Z,101277.91
2022-11-02T03:31:34.685Z,101276.16
2022-11-02T03:34:16.858Z,101269.94
2022-11-02T03:37:02.131Z,101269.03
2022-11-02T03:39:57.747Z,101268.50
2022-11-02T03:42:33.361Z,101264.75
2022-11-02T03:45:16.556Z,101245.22
2022-11-02T03:47:58.100Z,101245.28
2022-11-02T03:50:29.275Z,101244.16
2022-11-02T03:53:07.988Z,101244.22
2022-11-02T03:55:48.031Z,101235.44
2022-11-02T03:58:20.438Z,101225.19
2022-11-02T04:00:57.393Z,101217.56
2022-11-02T04:03:27.715Z,101213.56
2022-11-02T04:05:58.870Z,101220.25
2022-11-02T04:08:46.618Z,101217.75
2022-11-02T04:11:36.922Z,101218.28
2022-11-02T04:14:30.377Z,101214.16
2022-11-02T04:17:20.869Z,101199.69
2022-11-02T04:19:54.834Z,101209.34
2022-11-02T04:22:43.700Z,101211.16
2022-11-02T04:25:22.291Z,101212.50
2022-11-02T04:28:10.517Z,101210.66
2022-11-02T04:30:46.360Z,101191.91
2022-11-02T04:33:35.954Z,101186.44
2022-11-02T04:36:24.466Z,101180.28
2022-11-02T04:38:58.630Z,101176.31
2022-11-02T04:41:44.746Z,101180.63
2022-11-02T04:44:34.757Z,101170.69
2022-11-02T04:47:22.957Z,101167.88
2022-11-02T04:49:55.318Z,101179.16
2022-11-02T04:52:25.632Z,101160.06
2022-11-02T04:54:57.501Z,101157.91
2022-11-02T04:57:28.421Z,101149.94
2022-11-02T05:00:02.611Z,101147.09
2022-11-02T05:02:35.349Z,101148.78
2022-11-02T05:05:08.517Z,101138.81
2022-11-02T05:07:38.702Z,101131.66
2022-11-02T05:10:09.278Z,101136.28
2022-11-02T05:12:40.791Z,101140.13
2022-11-02T05:15:11.572Z,101133.97
2022-11-02T05:17:42.163Z,101135.28
2022-11-02T05:21:14.086Z,101124.56
2022-11-02T05:24:08.876Z,101129.56
2022-11-02T05:27:13.195Z,101125.75
2022-11-02T05:34:09.829Z,101111.59
2022-11-02T05:45:25.409Z,101120.28
2022-11-02T05:47:55.575Z,101116.81
2022-11-02T05:50:29.343Z,101114.13
2022-11-02T05:53:02.604Z,101107.63
2022-11-02T05:55:36.659Z,101119.63
2022-11-02T05:58:07.850Z,101116.97
2022-11-02T06:00:39.396Z,101126.94
2022-11-02T06:03:10.753Z,101118.13
2022-11-02T06:05:42.343Z,101113.66
2022-11-02T06:08:13.910Z,101108.13
2022-11-02T06:10:44.630Z,101099.31
2022-11-02T06:13:16.488Z,101099.16
2022-11-02T06:15:47.210Z,101099.16
2022-11-02T06:18:17.702Z,101089.81
2022-11-02T06:20:47.958Z,101102.94
2022-11-02T06:23:20.921Z,101093.66
2022-11-02T06:26:03.784Z,101089.97
2022-11-02T06:28:34.968Z,101087.63
2022-11-02T06:31:05.816Z,101096.25
2022-11-02T06:33:36.037Z,101104.91
2022-11-02T06:36:08.914Z,101099.56
2022-11-02T06:38:40.039Z,101105.22
2022-11-02T06:41:11.249Z,101112.53
2022-11-02T06:43:42.419Z,101111.97
2022-11-02T06:46:13.959Z,101110.47
2022-11-02T06:48:45.536Z,101100.16
2022-11-02T06:51:16.363Z,101098.66
2022-11-02T06:53:47.399Z,101098.09
2022-11-02T06:56:19.307Z,101098.78
2022-11-02T06:58:49.899Z,101098.78
2022-11-02T07:01:22.084Z,101100.41
2022-11-02T07:03:53.958Z,101100.41
2022-11-02T07:06:25.299Z,101102.56
2022-11-02T07:08:57.775Z,101111.03
2022-11-02T07:11:29.056Z,101104.03
2022-11-02T07:14:01.092Z,101107.25
2022-11-02T07:16:32.650Z,101107.75
2022-11-02T07:19:03.161Z,101106.47
2022-11-02T07:21:33.699Z,101106.78
2022-11-02T07:24:03.912Z,101107.94
2022-11-02T07:26:34.419Z,101104.13
2022-11-02T07:29:05.066Z,101099.16
2022-11-02T07:31:37.135Z,101107.50
2022-11-02T07:34:10.638Z,101096.72
2022-11-02T07:36:43.577Z,101099.06
2022-11-02T07:39:14.101Z,101100.25
2022-11-02T07:41:49.354Z,101108.56
2022-11-02T07:44:22.159Z,101108.25
2022-11-02T07:46:58.818Z,101102.28
2022-11-02T07:49:30.143Z,101109.78
2022-11-02T07:52:03.678Z,101099.97
2022-11-02T07:54:39.572Z,101103.00
2022-11-02T07:57:13.964Z,101112.31
2022-11-02T07:59:44.595Z,101121.63
2022-11-02T08:02:17.635Z,101126.47
2022-11-02T08:04:48.293Z,101118.00
2022-11-02T08:07:18.555Z,101117.66
2022-11-02T08:09:48.685Z,101104.88
2022-11-02T08:12:21.751Z,101116.69
2022-11-02T08:14:52.267Z,101117.84
2022-11-02T08:17:23.254Z,101116.84
2022-11-02T08:19:53.630Z,101118.84
2022-11-02T08:22:23.873Z,101119.34
2022-11-02T08:24:54.677Z,101124.16
2022-11-02T08:27:25.639Z,101118.34
2022-11-02T08:29:56.068Z,101121.38
2022-11-02T08:32:26.472Z,101121.03
2022-11-02T08:34:56.963Z,101121.50
2022-11-02T08:37:28.047Z,101110.53
2022-11-02T08:40:00.327Z,101111.19
2022-11-02T08:42:30.512Z,101106.53
2022-11-02T08:45:00.762Z,101102.88
2022-11-02T08:47:30.879Z,101106.88
2022-11-02T08:50:00.898Z,101104.84
2022-11-02T08:52:40.367Z,101103.84
2022-11-02T08:55:12.082Z,101110.66
2022-11-02T08:57:54.771Z,101100.66
2022-11-02T09:00:36.846Z,101104.97
2022-11-02T09:03:09.007Z,101111.91
2022-11-02T09:05:42.312Z,101120.53
2022-11-02T09:08:17.306Z,101117.53
2022-11-02T09:10:50.985Z,101120.97
2022-11-02T09:13:26.357Z,101132.41
2022-11-02T09:15:59.392Z,101139.34
2022-11-02T09:18:30.340Z,101152.25
2022-11-02T09:21:06.470Z,101165.31
2022-11-02T09:23:37.312Z,101151.84
2022-11-02T09:26:08.272Z,101151.16
2022-11-02T09:28:39.540Z,101158.06
2022-11-02T09:31:11.574Z,101153.56
2022-11-02T09:33:42.753Z,101160.50
2022-11-02T09:36:13.408Z,101161.81
2022-11-02T09:38:45.728Z,101163.13
2022-11-02T09:41:41.591Z,101151.81
2022-11-02T09:44:41.069Z,101156.94
2022-11-02T09:48:28.328Z,101153.91
2022-11-02T09:50:07.010Z,101173.44
2022-11-02T09:52:39.103Z,101169.28
2022-11-02T09:55:21.238Z,101165.44
2022-11-02T09:57:52.074Z,101170.41
2022-11-02T10:00:23.177Z,101174.38
2022-11-02T10:03:17.570Z,101177.16
2022-11-02T10:05:56.495Z,101181.66
2022-11-02T10:08:52.944Z,101197.03
2022-11-02T10:12:07.030Z,101199.97
2022-11-02T10:14:39.959Z,101195.81
2022-11-02T10:17:29.977Z,101201.28
2022-11-02T10:20:06.372Z,101207.53
2022-11-02T10:22:39.283Z,101205.88
2022-11-02T10:25:13.983Z,101209.53
2022-11-02T10:27:49.916Z,101212.31
2022-11-02T10:30:22.227Z,101208.53
2022-11-02T10:32:58.009Z,101220.81
2022-11-02T10:36:04.926Z,101219.97
2022-11-02T10:39:16.700Z,101218.97
2022-11-02T10:42:09.758Z,101229.72
2022-11-02T10:44:45.841Z,101232.56
2022-11-02T10:47:19.515Z,101232.69
2022-11-02T10:49:52.779Z,101241.75
2022-11-02T10:52:23.816Z,101248.50
2022-11-02T10:54:54.837Z,101258.56
2022-11-02T10:57:27.792Z,101259.72
2022-11-02T11:00:33.893Z,101261.97
2022-11-02T11:03:14.687Z,101272.19
2022-11-02T11:06:05.197Z,101267.19
2022-11-02T11:08:45.416Z,101272.09
2022-11-02T11:11:19.160Z,101270.41
2022-11-02T11:19:58.597Z,101292.63
2022-11-02T11:22:40.035Z,101304.38
2022-11-02T11:25:28.037Z,101306.47
2022-11-02T11:28:00.874Z,101314.97
2022-11-02T11:30:59.116Z,101309.28
2022-11-02T11:33:33.650Z,101317.41
2022-11-02T11:36:04.351Z,101319.19
2022-11-02T11:38:35.826Z,101321.97
2022-11-02T11:41:07.392Z,101327.28
2022-11-02T11:43:40.766Z,101328.28
2022-11-02T11:46:16.367Z,101333.44
2022-11-02T11:49:02.282Z,101337.88
2022-11-02T11:51:46.921Z,101351.25
2022-11-02T11:54:30.378Z,101340.81
2022-11-02T11:57:21.898Z,101337.47
2022-11-02T11:59:59.683Z,101339.41
2022-11-02T12:02:44.179Z,101349.19
2022-11-02T12:05:18.263Z,101350.88
2022-11-02T12:08:06.993Z,101358.81
2022-11-02T12:11:20.723Z,101359.78
2022-11-02T12:14:24.257Z,101367.56
2022-11-02T12:17:12.392Z,101369.41
2022-11-02T12:20:18.611Z,101366.75
2022-11-02T12:23:26.700Z,101368.53
2022-11-02T12:26:03.077Z,101366.19
2022-11-02T12:28:58.228Z,101359.47
2022-11-02T12:31:36.955Z,101362.94
2022-11-02T12:34:38.333Z,101376.19
2022-11-02T12:37:40.241Z,101373.69
2022-11-02T12:40:17.118Z,101373.97
2022-11-02T12:43:14.493Z,101375.22
2022-11-02T12:45:59.849Z,101383.16
2022-11-02T12:49:00.068Z,101389.31
2022-11-02T12:51:55.362Z,101385.66
2022-11-02T12:54:41.588Z,101405.19
2022-11-02T12:57:20.714Z,101400.59
2022-11-02T12:59:57.579Z,101402.41
2022-11-02T13:03:17.865Z,101401.41
2022-11-02T13:06:00.326Z,101406.84
2022-11-02T13:08:55.411Z,101408.53
2022-11-02T13:11:35.250Z,101418.16
2022-11-02T13:14:15.226Z,101422.44
2022-11-02T13:17:06.374Z,101420.63
2022-11-02T13:19:41.062Z,101422.44
2022-11-02T13:22:16.018Z,101430.53
2022-11-02T13:24:56.112Z,101430.38
2022-11-02T13:27:39.269Z,101439.16
2022-11-02T13:30:20.198Z,101442.66
2022-11-02T13:33:06.671Z,101441.66
2022-11-02T13:35:42.578Z,101447.94
2022-11-02T13:38:35.012Z,101447.81
2022-11-02T13:41:11.418Z,101453.94
2022-11-02T13:43:50.520Z,101460.06
2022-11-02T13:46:52.114Z,101462.56
2022-11-02T13:49:39.183Z,101455.59
2022-11-02T13:52:18.657Z,101467.84
2022-11-02T13:54:55.154Z,101464.38
2022-11-02T13:57:47.525Z,101468.72
2022-11-02T14:00:29.231Z,101465.94
2022-11-02T14:03:06.588Z,101478.22
2022-11-02T14:05:47.746Z,101488.09
2022-11-02T14:08:27.732Z,101479.84
2022-11-02T14:11:31.150Z,101478.22
2022-11-02T14:14:04.673Z,101485.16
2022-11-02T14:19:54.048Z,101478.22
2022-11-02T14:22:25.992Z,101488.66
2022-11-02T14:25:06.769Z,101489.63
2022-11-02T14:27:40.337Z,101497.44
2022-11-02T14:30:45.263Z,101498.38
2022-11-02T14:33:46.886Z,101510.66
2022-11-02T14:36:21.400Z,101507.19
2022-11-02T14:38:59.227Z,101516.22
2022-11-02T14:41:53.594Z,101517.09
2022-11-02T14:44:52.849Z,101521.06
2022-11-02T14:47:32.285Z,101513.56
2022-11-02T14:50:21.959Z,101517.31
2022-11-02T14:53:11.751Z,101519.13
2022-11-02T14:55:43.839Z,101520.22
2022-11-02T14:58:23.370Z,101515.91
2022-11-02T15:00:53.871Z,101524.41
2022-11-02T15:03:30.894Z,101517.31
2022-11-02T15:06:17.064Z,101522.59
2022-11-02T15:09:06.124Z,101525.09
2022-11-02T15:11:59.137Z,101525.25
2022-11-02T15:14:41.688Z,101531.97
2022-11-02T15:17:18.216Z,101535.00
2022-11-02T15:19:55.941Z,101532.25
2022-11-02T15:22:35.485Z,101534.03
2022-11-02T15:25:16.676Z,101532.34
2022-11-02T15:27:48.531Z,101552.84
2022-11-02T15:30:28.023Z,101544.34
2022-11-02T15:33:06.569Z,101544.75
2022-11-02T15:35:40.165Z,101539.03
2022-11-02T15:38:18.029Z,101557.97
2022-11-02T15:41:02.851Z,101551.97
2022-11-02T15:43:48.539Z,101558.38
2022-11-02T15:46:35.435Z,101569.25
2022-11-02T15:49:19.500Z,101563.66
2022-11-02T15:52:07.169Z,101561.13
2022-11-02T15:54:54.155Z,101563.09
2022-11-02T15:57:39.028Z,101565.03
2022-11-02T16:00:11.834Z,101570.59
2022-11-02T16:02:56.018Z,101575.88
2022-11-02T16:05:35.982Z,101571.53
2022-11-02T16:08:11.230Z,101585.91
2022-11-02T16:10:43.171Z,101579.78
2022-11-02T16:13:20.708Z,101587.16
2022-11-02T16:15:53.171Z,101589.91
2022-11-02T16:18:29.524Z,101581.28
2022-11-02T16:21:04.639Z,101586.97
2022-11-02T16:23:44.299Z,101596.44
2022-11-02T16:26:25.474Z,101585.84
2022-11-02T16:29:02.787Z,101588.50
2022-11-02T16:31:33.728Z,101584.34
2022-11-02T16:34:15.859Z,101583.13
2022-11-02T16:36:46.761Z,101576.44
2022-11-02T16:39:36.604Z,101579.66
2022-11-02T16:42:31.098Z,101585.38
2022-11-02T16:45:05.623Z,101574.41
2022-11-02T16:47:47.329Z,101581.91
2022-11-02T16:50:26.218Z,101586.81
2022-11-02T16:53:05.423Z,101579.69
2022-11-02T16:55:49.435Z,101584.03
2022-11-02T16:58:26.478Z,101582.91
2022-11-02T17:01:03.120Z,101577.47
2022-11-02T17:03:35.681Z,101580.13
2022-11-02T17:06:08.788Z,101583.75
2022-11-02T17:08:41.861Z,101575.66
2022-11-02T17:11:19.209Z,101583.75
2022-11-02T17:14:03.997Z,101578.44
2022-11-02T17:16:36.808Z,101588.34
2022-11-02T17:19:10.857Z,101586.56
2022-11-02T17:21:47.301Z,101592.09
2022-11-02T17:24:36.493Z,101594.19
2022-11-02T17:27:26.908Z,101595.00
2022-11-02T17:29:57.144Z,101592.63
2022-11-02T17:32:28.971Z,101592.06
2022-11-02T17:35:00.853Z,101596.53
2022-11-02T17:37:34.918Z,101595.84
2022-11-02T17:40:05.606Z,101595.84
2022-11-02T17:42:55.847Z,101591.63
2022-11-02T17:45:35.480Z,101590.94
2022-11-02T17:48:08.562Z,101585.66
2022-11-02T17:50:41.385Z,101591.75
2022-11-02T17:53:15.393Z,101588.28
2022-11-02T17:55:46.034Z,101580.47
2022-11-02T17:58:16.929Z,101583.81
2022-11-02T18:00:48.699Z,101596.78
2022-11-02T18:03:25.584Z,101601.25
2022-11-02T18:06:00.334Z,101612.94
2022-11-02T18:08:30.970Z,101608.75
2022-11-02T18:11:02.368Z,101616.56
2022-11-02T18:13:32.738Z,101626.44
2022-11-02T18:16:02.788Z,101625.59
2022-11-02T18:18:32.830Z,101622.38
2022-11-02T18:21:02.776Z,101627.09
2022-11-02T18:23:34.339Z,101629.03
2022-11-02T18:26:04.588Z,101643.25
2022-11-02T18:28:34.185Z,101634.59
2022-11-02T18:31:05.329Z,101632.09
2022-11-02T18:33:35.833Z,101631.38
2022-11-02T18:36:11.130Z,101636.53
2022-11-02T18:38:41.184Z,101636.81
2022-11-02T18:41:32.024Z,101631.78
2022-11-02T18:44:13.608Z,101627.47
2022-11-02T18:46:45.347Z,101627.72
2022-11-02T18:49:15.828Z,101632.06
2022-11-02T18:51:46.955Z,101637.59
2022-11-02T18:54:16.993Z,101635.94
2022-11-02T18:56:47.532Z,101639.78
2022-11-02T18:59:17.672Z,101634.50
2022-11-02T19:01:49.090Z,101640.78
2022-11-02T19:04:19.357Z,101635.03
2022-11-02T19:07:07.572Z,101634.78
2022-11-02T19:09:39.396Z,101642.97
2022-11-02T19:12:11.005Z,101639.09
2022-11-02T19:14:44.809Z,101639.09
2022-11-02T19:17:14.687Z,101654.00
2022-11-02T19:19:46.790Z,101657.59
2022-11-02T19:22:27.094Z,101662.88
2022-11-02T19:24:57.253Z,101669.00
2022-11-02T19:27:27.664Z,101667.34
2022-11-02T19:29:57.648Z,101663.00
2022-11-02T19:32:27.820Z,101672.75
2022-11-02T19:34:57.925Z,101675.28
2022-11-02T19:37:33.445Z,101684.16
2022-11-02T19:40:04.965Z,101679.88
2022-11-02T19:42:34.293Z,101691.28
2022-11-02T19:45:04.344Z,101688.19
2022-11-02T19:47:34.292Z,101687.59
2022-11-02T19:50:04.756Z,101696.63
2022-11-02T19:52:37.511Z,101708.16
2022-11-02T19:55:08.407Z,101710.94
2022-11-02T19:57:39.182Z,101720.69
2022-11-02T20:00:10.391Z,101716.59
2022-11-02T20:02:42.602Z,101727.56
2022-11-02T20:05:14.029Z,101725.06
2022-11-02T20:07:44.386Z,101741.41
2022-11-02T20:10:14.924Z,101744.44
2022-11-02T20:12:45.376Z,101748.16
2022-11-02T20:15:15.430Z,101749.25
2022-11-02T20:18:05.645Z,101747.69
2022-11-02T20:20:36.171Z,101755.19
2022-11-02T20:23:07.653Z,101753.75
2022-11-02T20:25:40.792Z,101752.06
2022-11-02T20:28:10.979Z,101767.19
2022-11-02T20:30:45.048Z,101771.53
2022-11-02T20:33:15.425Z,101770.69
2022-11-02T20:35:46.307Z,101773.22
2022-11-02T20:38:15.986Z,101774.16
2022-11-02T20:40:45.963Z,101782.09
2022-11-02T20:43:17.186Z,101787.59
2022-11-02T20:45:47.604Z,101793.59
2022-11-02T20:48:17.602Z,101793.16
2022-11-02T20:50:48.127Z,101799.16
2022-11-02T20:53:18.740Z,101807.19
2022-11-02T20:55:48.966Z,101802.28
2022-11-02T20:58:21.237Z,101798.44
2022-11-02T21:00:51.944Z,101793.41
2022-11-02T21:03:24.043Z,101804.22
2022-11-02T21:05:54.300Z,101812.84
2022-11-02T21:08:24.928Z,101808.66
2022-11-02T21:11:00.000Z,101812.38
2022-11-02T21:13:49.921Z,101825.69
2022-11-02T21:16:21.094Z,101826.78
2022-11-02T21:18:53.479Z,101829.66
2022-11-02T21:21:26.431Z,101831.59
2022-11-02T21:23:59.214Z,101828.25
2022-11-02T21:26:30.883Z,101833.75
2022-11-02T21:29:04.209Z,101837.34
2022-11-02T21:31:34.941Z,101843.69
2022-11-02T21:34:05.190Z,101844.91
2022-11-02T21:36:36.133Z,101859.28
2022-11-02T21:39:07.518Z,101855.91
2022-11-02T21:41:39.875Z,101847.16
2022-11-02T21:44:11.546Z,101854.59
2022-11-02T21:46:42.501Z,101861.09
2022-11-02T21:49:14.233Z,101863.34
2022-11-02T21:51:46.025Z,101859.13
2022-11-02T21:54:16.194Z,101862.97
2022-11-02T21:56:47.643Z,101865.97
2022-11-02T21:59:17.310Z,101869.81
2022-11-02T22:01:51.011Z,101873.97
2022-11-02T22:04:33.417Z,101876.13
2022-11-02T22:07:05.440Z,101883.66
2022-11-02T22:09:35.852Z,101876.31
2022-11-02T22:12:23.945Z,101880.38
2022-11-02T22:14:55.411Z,101892.34
2022-11-02T22:17:48.670Z,101911.00
2022-11-02T22:20:16.435Z,101907.16
2022-11-02T22:22:47.962Z,101903.06
2022-11-02T22:25:19.502Z,101911.41
2022-11-02T22:27:50.580Z,101910.56
2022-11-02T22:30:21.304Z,101903.97
2022-11-02T22:32:52.438Z,101913.88
2022-11-02T22:35:23.905Z,101921.38
2022-11-02T22:38:12.114Z,101919.59
2022-11-02T22:40:43.801Z,101919.94
2022-11-02T22:43:15.326Z,101927.31
2022-11-02T22:45:46.995Z,101921.75
2022-11-02T22:50:53.943Z,101947.06
2022-11-02T22:53:32.733Z,101954.22
2022-11-02T22:56:13.879Z,101954.53
2022-11-02T22:58:46.959Z,101966.34
2022-11-02T23:01:24.734Z,101960.34
2022-11-02T23:03:56.388Z,101961.53
2022-11-02T23:06:28.334Z,101972.06
2022-11-02T23:09:00.549Z,101973.19
2022-11-02T23:11:35.833Z,101990.91
2022-11-02T23:14:09.184Z,101987.44
2022-11-02T23:16:46.238Z,101987.53
2022-11-02T23:19:27.693Z,101999.97
2022-11-02T23:22:27.114Z,102009.78
2022-11-02T23:25:19.315Z,102005.63
2022-11-02T23:28:18.745Z,102023.50
2022-11-02T23:31:07.976Z,102022.03
2022-11-02T23:33:38.618Z,102037.19
2022-11-02T23:36:17.861Z,102052.88
2022-11-02T23:39:07.849Z,102043.72
2022-11-02T23:41:39.940Z,102052.25
2022-11-02T23:44:13.945Z,102062.72
2022-11-02T23:46:46.583Z,102063.28
2022-11-02T23:49:20.838Z,102064.00
2022-11-02T23:52:08.750Z,102071.91
2022-11-02T23:54:58.094Z,102071.59
2022-11-02T23:57:28.133Z,102096.03
2022-11-02T23:59:59.091Z,102086.34
